Terminal Aerodrome Forecast
Issued by NWS

Home | Current Version | Previous Version | Text Only | Print | Product List | Glossary On
Versions: 1 2 3 4 5 6 7 8 9 10 11 12 13 14 15 16 17 18 19 20 21 22 23 24 25 26 27 28 29 30 31 32 33 34 35 36 37
000
FTUS45 KBYZ 260622 AAA
TAFLVM
TAF AMD
KLVM 260622Z 2606/2706 09005KT 1SM -SN BR BKN006 OVC011
     FM261000 24010KT 3SM -SN BR OVC012
     FM261600 22014KT 6SM -SN BKN025 OVC030
     FM262000 22020G30KT P6SM SCT030 BKN060=

USA.gov is the U.S. government's official web portal to all federal, state and local government web resources and services.